sensor_id;sensor_type;location;lat;lon;timestamp;pressure;altitude;pressure_sealevel;temperature;humidity
20971;BME280;10644;48.834;10.088;2024-01-30T00:02:14;97972.22;;;8.36;57.31
20971;BME280;10644;48.834;10.088;2024-01-30T00:04:40;97974.00;;;8.32;56.83
20971;BME280;10644;48.834;10.088;2024-01-30T00:07:05;97982.81;;;8.54;56.00
20971;BME280;10644;48.834;10.088;2024-01-30T00:09:31;97976.69;;;8.61;55.92
20971;BME280;10644;48.834;10.088;2024-01-30T00:11:57;97986.47;;;8.78;55.40
20971;BME280;10644;48.834;10.088;2024-01-30T00:14:22;97970.06;;;8.86;54.79
20971;BME280;10644;48.834;10.088;2024-01-30T00:16:48;97970.41;;;9.05;53.86
20971;BME280;10644;48.834;10.088;2024-01-30T00:19:14;97970.06;;;9.17;53.93
20971;BME280;10644;48.834;10.088;2024-01-30T00:21:39;97968.03;;;9.28;53.58
20971;BME280;10644;48.834;10.088;2024-01-30T00:24:04;97975.78;;;9.26;52.83
20971;BME280;10644;48.834;10.088;2024-01-30T00:26:32;97980.72;;;9.32;52.96
20971;BME280;10644;48.834;10.088;2024-01-30T00:28:57;97980.75;;;9.31;52.56
20971;BME280;10644;48.834;10.088;2024-01-30T00:31:23;97969.59;;;9.33;52.81
20971;BME280;10644;48.834;10.088;2024-01-30T00:33:49;97976.34;;;9.36;51.98
20971;BME280;10644;48.834;10.088;2024-01-30T00:36:14;97974.50;;;9.41;51.76
20971;BME280;10644;48.834;10.088;2024-01-30T00:38:39;97977.09;;;9.39;52.06
20971;BME280;10644;48.834;10.088;2024-01-30T00:41:07;97971.97;;;9.39;51.80
20971;BME280;10644;48.834;10.088;2024-01-30T00:43:33;97968.88;;;9.28;51.86
20971;BME280;10644;48.834;10.088;2024-01-30T00:45:58;97972.38;;;8.95;52.24
20971;BME280;10644;48.834;10.088;2024-01-30T00:48:24;97986.03;;;8.94;51.97
20971;BME280;10644;48.834;10.088;2024-01-30T00:50:49;97978.22;;;8.99;51.54
20971;BME280;10644;48.834;10.088;2024-01-30T00:53:15;97985.13;;;8.95;51.40
20971;BME280;10644;48.834;10.088;2024-01-30T00:55:40;97990.19;;;8.98;51.75
20971;BME280;10644;48.834;10.088;2024-01-30T00:58:08;97982.56;;;8.97;51.52
20971;BME280;10644;48.834;10.088;2024-01-30T01:00:34;97997.13;;;8.93;51.52
20971;BME280;10644;48.834;10.088;2024-01-30T01:03:02;97978.56;;;8.87;51.46
20971;BME280;10644;48.834;10.088;2024-01-30T01:05:28;97992.09;;;8.90;51.36
20971;BME280;10644;48.834;10.088;2024-01-30T01:07:56;97991.91;;;8.96;51.61
20971;BME280;10644;48.834;10.088;2024-01-30T01:10:22;97995.97;;;8.73;52.18
20971;BME280;10644;48.834;10.088;2024-01-30T01:12:49;97993.31;;;8.76;51.98
20971;BME280;10644;48.834;10.088;2024-01-30T01:15:15;97998.38;;;8.79;51.69
20971;BME280;10644;48.834;10.088;2024-01-30T01:17:40;97992.34;;;8.81;51.67
20971;BME280;10644;48.834;10.088;2024-01-30T01:20:07;97998.91;;;8.58;51.87
20971;BME280;10644;48.834;10.088;2024-01-30T01:22:33;97999.75;;;8.58;51.87
20971;BME280;10644;48.834;10.088;2024-01-30T01:24:59;97999.25;;;8.43;52.49
20971;BME280;10644;48.834;10.088;2024-01-30T01:27:27;97972.91;;;8.42;52.61
20971;BME280;10644;48.834;10.088;2024-01-30T01:29:53;97994.84;;;8.49;52.65
20971;BME280;10644;48.834;10.088;2024-01-30T01:32:18;97992.25;;;8.52;52.69
20971;BME280;10644;48.834;10.088;2024-01-30T01:34:44;97986.91;;;8.60;52.17
20971;BME280;10644;48.834;10.088;2024-01-30T01:37:10;97987.69;;;8.63;51.76
20971;BME280;10644;48.834;10.088;2024-01-30T01:39:37;97991.06;;;8.65;52.04
20971;BME280;10644;48.834;10.088;2024-01-30T01:42:03;97985.84;;;8.68;51.64
20971;BME280;10644;48.834;10.088;2024-01-30T01:44:29;97984.28;;;8.64;51.75
20971;BME280;10644;48.834;10.088;2024-01-30T01:46:54;97989.28;;;8.67;51.90
20971;BME280;10644;48.834;10.088;2024-01-30T01:49:29;97984.34;;;8.61;51.65
20971;BME280;10644;48.834;10.088;2024-01-30T01:51:55;97989.44;;;8.61;51.60
20971;BME280;10644;48.834;10.088;2024-01-30T01:54:24;97977.78;;;8.51;51.37
20971;BME280;10644;48.834;10.088;2024-01-30T01:56:51;97995.56;;;8.56;51.53
20971;BME280;10644;48.834;10.088;2024-01-30T01:59:17;97977.13;;;8.45;51.75
20971;BME280;10644;48.834;10.088;2024-01-30T02:01:43;97985.53;;;8.48;51.73
20971;BME280;10644;48.834;10.088;2024-01-30T02:04:08;97983.75;;;8.50;51.74
20971;BME280;10644;48.834;10.088;2024-01-30T02:06:37;97988.75;;;8.55;51.70
20971;BME280;10644;48.834;10.088;2024-01-30T02:09:03;97987.00;;;8.57;51.57
20971;BME280;10644;48.834;10.088;2024-01-30T02:11:29;97972.59;;;8.54;51.67
20971;BME280;10644;48.834;10.088;2024-01-30T02:13:55;97987.84;;;8.57;51.78
20971;BME280;10644;48.834;10.088;2024-01-30T02:16:20;97976.88;;;8.54;51.79
20971;BME280;10644;48.834;10.088;2024-01-30T02:18:46;97986.16;;;8.56;51.84
20971;BME280;10644;48.834;10.088;2024-01-30T02:21:15;97979.47;;;8.52;51.89
20971;BME280;10644;48.834;10.088;2024-01-30T02:23:43;97987.31;;;8.45;51.80
20971;BME280;10644;48.834;10.088;2024-01-30T02:26:09;97977.88;;;8.48;51.94
20971;BME280;10644;48.834;10.088;2024-01-30T02:28:34;97977.13;;;8.45;52.23
20971;BME280;10644;48.834;10.088;2024-01-30T02:31:00;97981.31;;;8.47;51.57
20971;BME280;10644;48.834;10.088;2024-01-30T02:33:25;97982.94;;;8.50;51.74
20971;BME280;10644;48.834;10.088;2024-01-30T02:35:51;98002.34;;;8.57;51.14
20971;BME280;10644;48.834;10.088;2024-01-30T02:38:16;98000.72;;;8.53;51.83
20971;BME280;10644;48.834;10.088;2024-01-30T02:40:42;97989.75;;;8.49;51.93
20971;BME280;10644;48.834;10.088;2024-01-30T02:43:07;97983.13;;;8.42;51.48
20971;BME280;10644;48.834;10.088;2024-01-30T02:45:32;97995.00;;;8.43;51.56
20971;BME280;10644;48.834;10.088;2024-01-30T02:48:00;97986.47;;;8.44;51.67
20971;BME280;10644;48.834;10.088;2024-01-30T02:50:28;97980.66;;;8.38;51.35
20971;BME280;10644;48.834;10.088;2024-01-30T02:52:53;97976.56;;;8.32;51.69
20971;BME280;10644;48.834;10.088;2024-01-30T02:55:18;97984.13;;;8.35;52.02
20971;BME280;10644;48.834;10.088;2024-01-30T02:57:44;97974.66;;;8.40;51.36
20971;BME280;10644;48.834;10.088;2024-01-30T03:00:10;97981.53;;;8.38;51.49
20971;BME280;10644;48.834;10.088;2024-01-30T03:02:36;97977.16;;;8.42;51.73
20971;BME280;10644;48.834;10.088;2024-01-30T03:05:01;97981.47;;;8.41;51.21
20971;BME280;10644;48.834;10.088;2024-01-30T03:07:29;97982.25;;;8.43;52.19
20971;BME280;10644;48.834;10.088;2024-01-30T03:09:54;97976.56;;;8.32;51.43
20971;BME280;10644;48.834;10.088;2024-01-30T03:12:21;97978.25;;;8.32;52.05
20971;BME280;10644;48.834;10.088;2024-01-30T03:14:46;97976.59;;;8.31;51.82
20971;BME280;10644;48.834;10.088;2024-01-30T03:17:11;97968.22;;;8.26;51.35
20971;BME280;10644;48.834;10.088;2024-01-30T03:19:37;97967.75;;;8.09;51.76
20971;BME280;10644;48.834;10.088;2024-01-30T03:22:02;97977.78;;;8.15;52.27
20971;BME280;10644;48.834;10.088;2024-01-30T03:24:27;97963.34;;;8.15;51.59
20971;BME280;10644;48.834;10.088;2024-01-30T03:26:53;97975.94;;;8.23;51.60
20971;BME280;10644;48.834;10.088;2024-01-30T03:29:18;97986.22;;;8.18;52.08
20971;BME280;10644;48.834;10.088;2024-01-30T03:31:43;97979.97;;;7.96;51.94
20971;BME280;10644;48.834;10.088;2024-01-30T03:34:09;97980.03;;;7.92;52.03
20971;BME280;10644;48.834;10.088;2024-01-30T03:36:34;97986.94;;;7.88;52.71
20971;BME280;10644;48.834;10.088;2024-01-30T03:39:00;97980.03;;;7.93;52.20
20971;BME280;10644;48.834;10.088;2024-01-30T03:41:26;97984.31;;;7.91;52.36
20971;BME280;10644;48.834;10.088;2024-01-30T03:43:53;97983.50;;;7.89;52.08
20971;BME280;10644;48.834;10.088;2024-01-30T03:46:19;97977.53;;;7.90;51.67
20971;BME280;10644;48.834;10.088;2024-01-30T03:48:45;97982.63;;;7.90;51.98
20971;BME280;10644;48.834;10.088;2024-01-30T03:51:13;97968.41;;;7.80;52.40
20971;BME280;10644;48.834;10.088;2024-01-30T03:53:40;97967.81;;;7.69;52.83
20971;BME280;10644;48.834;10.088;2024-01-30T03:56:07;97977.94;;;7.72;52.39
20971;BME280;10644;48.834;10.088;2024-01-30T03:58:32;97976.13;;;7.77;52.57
20971;BME280;10644;48.834;10.088;2024-01-30T04:00:57;97980.31;;;7.80;52.31
20971;BME280;10644;48.834;10.088;2024-01-30T04:03:23;97977.75;;;7.81;52.26
20971;BME280;10644;48.834;10.088;2024-01-30T04:05:48;97984.72;;;7.73;52.07
20971;BME280;10644;48.834;10.088;2024-01-30T04:08:13;97989.22;;;7.62;52.75
20971;BME280;10644;48.834;10.088;2024-01-30T04:10:39;97979.03;;;7.62;51.96
20971;BME280;10644;48.834;10.088;2024-01-30T04:13:05;97993.44;;;7.63;52.47
20971;BME280;10644;48.834;10.088;2024-01-30T04:15:30;97990.06;;;7.61;52.27
20971;BME280;10644;48.834;10.088;2024-01-30T04:17:59;97995.16;;;7.63;52.35
20971;BME280;10644;48.834;10.088;2024-01-30T04:20:24;97997.72;;;7.61;52.25
20971;BME280;10644;48.834;10.088;2024-01-30T04:22:50;98002.06;;;7.56;52.36
20971;BME280;10644;48.834;10.088;2024-01-30T04:25:16;97997.09;;;7.50;52.45
20971;BME280;10644;48.834;10.088;2024-01-30T04:27:41;98013.16;;;7.55;51.73
20971;BME280;10644;48.834;10.088;2024-01-30T04:30:07;98008.09;;;7.54;52.27
20971;BME280;10644;48.834;10.088;2024-01-30T04:32:32;98011.47;;;7.54;52.23
20971;BME280;10644;48.834;10.088;2024-01-30T04:35:05;98006.41;;;7.53;52.56
20971;BME280;10644;48.834;10.088;2024-01-30T04:37:30;98007.16;;;7.56;52.76
20971;BME280;10644;48.834;10.088;2024-01-30T04:39:56;98002.03;;;7.59;51.95
20971;BME280;10644;48.834;10.088;2024-01-30T04:42:22;98005.75;;;7.43;52.83
20971;BME280;10644;48.834;10.088;2024-01-30T04:44:47;97996.75;;;7.27;52.91
20971;BME280;10644;48.834;10.088;2024-01-30T04:47:12;97996.06;;;7.19;52.75
20971;BME280;10644;48.834;10.088;2024-01-30T04:49:38;97998.50;;;7.25;53.47
20971;BME280;10644;48.834;10.088;2024-01-30T04:52:05;98003.47;;;7.31;52.85
20971;BME280;10644;48.834;10.088;2024-01-30T04:54:31;97999.16;;;7.33;53.03
20971;BME280;10644;48.834;10.088;2024-01-30T04:56:56;98005.84;;;7.40;52.83
20971;BME280;10644;48.834;10.088;2024-01-30T04:59:21;98002.47;;;7.38;52.46
20971;BME280;10644;48.834;10.088;2024-01-30T05:01:47;98005.75;;;7.43;53.00
20971;BME280;10644;48.834;10.088;2024-01-30T05:04:12;98009.97;;;7.44;52.54
20971;BME280;10644;48.834;10.088;2024-01-30T05:06:37;98002.47;;;7.38;52.15
20971;BME280;10644;48.834;10.088;2024-01-30T05:09:03;98004.09;;;7.42;52.21
20971;BME280;10644;48.834;10.088;2024-01-30T05:11:31;98007.63;;;7.35;52.50
20971;BME280;10644;48.834;10.088;2024-01-30T05:13:56;98011.88;;;7.35;52.69
20971;BME280;10644;48.834;10.088;2024-01-30T05:16:22;98008.44;;;7.36;52.78
20971;BME280;10644;48.834;10.088;2024-01-30T05:18:47;98005.88;;;7.37;52.55
20971;BME280;10644;48.834;10.088;2024-01-30T05:21:13;98009.28;;;7.38;52.63
20971;BME280;10644;48.834;10.088;2024-01-30T05:23:38;98014.25;;;7.44;52.47
20971;BME280;10644;48.834;10.088;2024-01-30T05:26:04;98004.97;;;7.41;52.27
20971;BME280;10644;48.834;10.088;2024-01-30T05:28:29;98010.09;;;7.38;52.16
20971;BME280;10644;48.834;10.088;2024-01-30T05:30:57;98011.34;;;7.19;52.89
20971;BME280;10644;48.834;10.088;2024-01-30T05:33:23;98020.56;;;7.25;52.92
20971;BME280;10644;48.834;10.088;2024-01-30T05:35:48;98016.38;;;7.22;52.70
20971;BME280;10644;48.834;10.088;2024-01-30T05:38:15;98022.59;;;7.08;53.25
20971;BME280;10644;48.834;10.088;2024-01-30T05:40:41;98024.25;;;7.10;53.16
20971;BME280;10644;48.834;10.088;2024-01-30T05:43:06;98013.38;;;7.02;53.94
20971;BME280;10644;48.834;10.088;2024-01-30T05:45:33;98010.63;;;7.13;53.46
20971;BME280;10644;48.834;10.088;2024-01-30T05:47:59;98021.41;;;7.25;52.87
20971;BME280;10644;48.834;10.088;2024-01-30T05:50:24;98022.34;;;7.20;52.39
20971;BME280;10644;48.834;10.088;2024-01-30T05:52:51;98015.53;;;7.22;52.45
20971;BME280;10644;48.834;10.088;2024-01-30T05:55:16;98022.31;;;7.23;52.77
20971;BME280;10644;48.834;10.088;2024-01-30T05:57:42;98008.84;;;7.16;52.70
20971;BME280;10644;48.834;10.088;2024-01-30T06:00:07;98016.34;;;7.24;52.71
20971;BME280;10644;48.834;10.088;2024-01-30T06:02:35;98024.19;;;7.15;54.00
20971;BME280;10644;48.834;10.088;2024-01-30T06:05:01;98025.84;;;7.16;55.13
20971;BME280;10644;48.834;10.088;2024-01-30T06:07:26;98021.75;;;7.09;53.86
20971;BME280;10644;48.834;10.088;2024-01-30T06:09:51;98016.59;;;7.10;54.00
20971;BME280;10644;48.834;10.088;2024-01-30T06:12:17;98017.38;;;7.14;53.55
20971;BME280;10644;48.834;10.088;2024-01-30T06:14:42;98011.34;;;7.19;53.81
20971;BME280;10644;48.834;10.088;2024-01-30T06:17:08;98012.16;;;7.20;52.63
20971;BME280;10644;48.834;10.088;2024-01-30T06:19:34;98018.06;;;7.23;52.70
20971;BME280;10644;48.834;10.088;2024-01-30T06:21:59;98013.09;;;7.17;53.32
20971;BME280;10644;48.834;10.088;2024-01-30T06:24:25;98025.63;;;7.26;52.92
20971;BME280;10644;48.834;10.088;2024-01-30T06:26:50;98021.53;;;7.19;52.96
20971;BME280;10644;48.834;10.088;2024-01-30T06:29:15;98014.81;;;7.15;52.86
20971;BME280;10644;48.834;10.088;2024-01-30T06:31:43;98024.13;;;7.16;53.04
20971;BME280;10644;48.834;10.088;2024-01-30T06:34:09;98015.00;;;7.06;53.36
20971;BME280;10644;48.834;10.088;2024-01-30T06:36:36;98017.03;;;6.89;53.68
20971;BME280;10644;48.834;10.088;2024-01-30T06:39:04;98014.13;;;6.60;53.92
20971;BME280;10644;48.834;10.088;2024-01-30T06:41:30;98016.63;;;6.63;54.01
20971;BME280;10644;48.834;10.088;2024-01-30T06:43:59;98021.47;;;6.77;54.12
20971;BME280;10644;48.834;10.088;2024-01-30T06:46:24;98016.31;;;6.80;54.63
20971;BME280;10644;48.834;10.088;2024-01-30T06:48:52;98011.94;;;6.89;54.18
20971;BME280;10644;48.834;10.088;2024-01-30T06:51:18;98021.81;;;7.04;53.90
20971;BME280;10644;48.834;10.088;2024-01-30T06:53:45;98028.41;;;7.16;53.90
20971;BME280;10644;48.834;10.088;2024-01-30T06:56:11;98030.06;;;7.18;53.72
20971;BME280;10644;48.834;10.088;2024-01-30T06:58:36;98029.84;;;7.27;53.34
20971;BME280;10644;48.834;10.088;2024-01-30T07:01:02;98002.81;;;7.20;53.28
20971;BME280;10644;48.834;10.088;2024-01-30T07:03:27;98011.22;;;7.25;53.15
20971;BME280;10644;48.834;10.088;2024-01-30T07:05:53;98013.63;;;7.33;53.58
20971;BME280;10644;48.834;10.088;2024-01-30T07:08:25;98015.22;;;7.37;53.45
20971;BME280;10644;48.834;10.088;2024-01-30T07:10:51;98019.53;;;7.33;53.43
20971;BME280;10644;48.834;10.088;2024-01-30T07:13:23;98022.78;;;7.41;52.85
20971;BME280;10644;48.834;10.088;2024-01-30T07:15:48;98032.06;;;7.45;53.74
20971;BME280;10644;48.834;10.088;2024-01-30T07:18:14;98028.66;;;7.46;53.57
20971;BME280;10644;48.834;10.088;2024-01-30T07:20:42;98040.50;;;7.49;53.54
20971;BME280;10644;48.834;10.088;2024-01-30T07:23:13;98035.44;;;7.46;53.47
20971;BME280;10644;48.834;10.088;2024-01-30T07:25:41;98024.47;;;7.42;53.28
20971;BME280;10644;48.834;10.088;2024-01-30T07:28:10;98043.78;;;7.54;53.45
20971;BME280;10644;48.834;10.088;2024-01-30T07:30:46;98042.00;;;7.57;53.24
20971;BME280;10644;48.834;10.088;2024-01-30T07:33:13;98036.97;;;7.54;53.41
20971;BME280;10644;48.834;10.088;2024-01-30T07:35:39;98046.94;;;7.65;53.50
20971;BME280;10644;48.834;10.088;2024-01-30T07:38:04;98042.69;;;7.65;53.35
20971;BME280;10644;48.834;10.088;2024-01-30T07:40:30;98043.44;;;7.70;54.14
20971;BME280;10644;48.834;10.088;2024-01-30T07:42:58;98053.50;;;7.76;54.39
20971;BME280;10644;48.834;10.088;2024-01-30T07:45:24;98057.59;;;7.83;54.26
20971;BME280;10644;48.834;10.088;2024-01-30T07:47:52;98062.66;;;7.86;53.99
20971;BME280;10644;48.834;10.088;2024-01-30T07:50:18;98055.81;;;7.87;53.83
20971;BME280;10644;48.834;10.088;2024-01-30T07:52:44;98054.16;;;7.86;53.75
20971;BME280;10644;48.834;10.088;2024-01-30T07:55:10;98054.88;;;7.91;54.16
20971;BME280;10644;48.834;10.088;2024-01-30T07:57:35;98056.41;;;7.99;53.99
20971;BME280;10644;48.834;10.088;2024-01-30T08:00:03;98048.84;;;7.96;54.08
20971;BME280;10644;48.834;10.088;2024-01-30T08:02:30;98042.81;;;7.99;54.49
20971;BME280;10644;48.834;10.088;2024-01-30T08:04:56;98048.41;;;8.14;54.01
20971;BME280;10644;48.834;10.088;2024-01-30T08:07:21;98039.03;;;8.15;54.18
20971;BME280;10644;48.834;10.088;2024-01-30T08:09:50;98057.47;;;8.29;53.52
20971;BME280;10644;48.834;10.088;2024-01-30T08:12:17;98055.59;;;8.35;54.07
20971;BME280;10644;48.834;10.088;2024-01-30T08:14:42;98049.88;;;8.26;54.99
20971;BME280;10644;48.834;10.088;2024-01-30T08:17:08;98053.84;;;8.39;54.55
20971;BME280;10644;48.834;10.088;2024-01-30T08:19:33;98061.25;;;8.49;54.51
20971;BME280;10644;48.834;10.088;2024-01-30T08:21:59;98054.16;;;8.60;54.44
20971;BME280;10644;48.834;10.088;2024-01-30T08:24:27;98042.19;;;8.62;54.41
20971;BME280;10644;48.834;10.088;2024-01-30T08:26:52;98046.13;;;8.75;54.54
20971;BME280;10644;48.834;10.088;2024-01-30T08:29:17;98050.22;;;8.82;53.62
20971;BME280;10644;48.834;10.088;2024-01-30T08:31:46;98044.94;;;8.88;54.35
20971;BME280;10644;48.834;10.088;2024-01-30T08:34:11;98049.75;;;9.00;54.03
20971;BME280;10644;48.834;10.088;2024-01-30T08:36:36;98051.50;;;8.98;54.63
20971;BME280;10644;48.834;10.088;2024-01-30T08:39:02;98046.13;;;9.07;54.49
20971;BME280;10644;48.834;10.088;2024-01-30T08:41:28;98039.34;;;9.06;54.16
20971;BME280;10644;48.834;10.088;2024-01-30T08:43:53;98039.84;;;9.20;54.03
20971;BME280;10644;48.834;10.088;2024-01-30T08:46:19;98025.13;;;9.28;54.11
20971;BME280;10644;48.834;10.088;2024-01-30T08:48:46;98034.94;;;9.43;53.68
20971;BME280;10644;48.834;10.088;2024-01-30T08:51:11;98032.06;;;9.54;53.74
20971;BME280;10644;48.834;10.088;2024-01-30T08:53:37;98037.75;;;9.63;53.42
20971;BME280;10644;48.834;10.088;2024-01-30T08:56:06;98044.38;;;9.70;53.33
20971;BME280;10644;48.834;10.088;2024-01-30T08:58:34;98034.84;;;9.75;53.53
20971;BME280;10644;48.834;10.088;2024-01-30T09:00:59;98037.19;;;9.83;53.30
20971;BME280;10644;48.834;10.088;2024-01-30T09:03:24;98032.06;;;9.83;53.84
20971;BME280;10644;48.834;10.088;2024-01-30T09:05:50;98044.66;;;9.90;53.25
20971;BME280;10644;48.834;10.088;2024-01-30T09:08:15;98026.78;;;9.89;53.76
20971;BME280;10644;48.834;10.088;2024-01-30T09:10:40;98046.84;;;10.02;53.76
20971;BME280;10644;48.834;10.088;2024-01-30T09:13:07;98030.78;;;9.97;53.32
20971;BME280;10644;48.834;10.088;2024-01-30T09:15:33;98043.34;;;10.06;53.48
20971;BME280;10644;48.834;10.088;2024-01-30T09:18:00;98040.50;;;10.15;53.37
20971;BME280;10644;48.834;10.088;2024-01-30T09:20:25;98040.91;;;10.02;54.93
20971;BME280;10644;48.834;10.088;2024-01-30T09:22:51;98049.69;;;9.93;54.94
20971;BME280;10644;48.834;10.088;2024-01-30T09:25:16;98032.94;;;10.12;54.55
20971;BME280;10644;48.834;10.088;2024-01-30T09:27:46;98039.25;;;10.28;54.13
20971;BME280;10644;48.834;10.088;2024-01-30T09:30:12;98049.66;;;10.50;54.03
20971;BME280;10644;48.834;10.088;2024-01-30T09:32:39;98039.34;;;10.53;53.78
20971;BME280;10644;48.834;10.088;2024-01-30T09:35:07;98035.22;;;10.47;53.55
20971;BME280;10644;48.834;10.088;2024-01-30T09:37:32;98044.78;;;10.68;53.83
20971;BME280;10644;48.834;10.088;2024-01-30T09:40:01;98053.44;;;10.64;53.42
20971;BME280;10644;48.834;10.088;2024-01-30T09:42:37;98046.06;;;10.81;53.37
20971;BME280;10644;48.834;10.088;2024-01-30T09:45:06;98043.28;;;10.87;53.50
20971;BME280;10644;48.834;10.088;2024-01-30T09:47:33;98036.50;;;10.86;53.48
20971;BME280;10644;48.834;10.088;2024-01-30T09:50:06;98046.38;;;11.21;53.29
20971;BME280;10644;48.834;10.088;2024-01-30T09:52:34;98045.97;;;11.33;52.81
20971;BME280;10644;48.834;10.088;2024-01-30T09:55:00;98034.94;;;11.31;52.69
20971;BME280;10644;48.834;10.088;2024-01-30T09:57:26;98047.00;;;11.52;52.92
20971;BME280;10644;48.834;10.088;2024-01-30T09:59:54;98037.66;;;11.74;52.38
20971;BME280;10644;48.834;10.088;2024-01-30T10:02:20;98024.81;;;11.97;51.86
20971;BME280;10644;48.834;10.088;2024-01-30T10:04:50;98038.09;;;12.08;51.41
20971;BME280;10644;48.834;10.088;2024-01-30T10:07:19;98022.69;;;12.08;51.57
20971;BME280;10644;48.834;10.088;2024-01-30T10:09:46;98033.78;;;12.30;51.71
20971;BME280;10644;48.834;10.088;2024-01-30T10:12:12;98042.75;;;12.20;51.58
20971;BME280;10644;48.834;10.088;2024-01-30T10:14:42;98029.63;;;12.28;51.40
20971;BME280;10644;48.834;10.088;2024-01-30T10:17:11;98034.63;;;12.31;51.54
20971;BME280;10644;48.834;10.088;2024-01-30T10:19:40;98025.88;;;12.56;51.42
20971;BME280;10644;48.834;10.088;2024-01-30T10:22:09;98025.38;;;12.68;50.98
20971;BME280;10644;48.834;10.088;2024-01-30T10:24:34;98022.84;;;12.88;51.05
20971;BME280;10644;48.834;10.088;2024-01-30T10:27:00;98017.81;;;13.07;50.88
20971;BME280;10644;48.834;10.088;2024-01-30T10:29:26;98023.81;;;13.26;50.26
20971;BME280;10644;48.834;10.088;2024-01-30T10:31:58;98015.91;;;13.30;49.95
20971;BME280;10644;48.834;10.088;2024-01-30T10:34:23;98017.91;;;13.04;49.85
20971;BME280;10644;48.834;10.088;2024-01-30T10:37:03;98012.41;;;13.13;50.40
20971;BME280;10644;48.834;10.088;2024-01-30T10:39:37;98020.34;;;13.27;50.75
20971;BME280;10644;48.834;10.088;2024-01-30T10:42:04;98014.63;;;13.58;49.85
20971;BME280;10644;48.834;10.088;2024-01-30T10:44:36;98005.25;;;13.76;49.06
20971;BME280;10644;48.834;10.088;2024-01-30T10:47:06;98011.31;;;13.93;48.94
20971;BME280;10644;48.834;10.088;2024-01-30T10:49:33;98006.63;;;14.20;49.02
20971;BME280;10644;48.834;10.088;2024-01-30T10:52:01;98000.47;;;14.41;48.09
20971;BME280;10644;48.834;10.088;2024-01-30T10:54:28;98003.13;;;14.56;47.75
20971;BME280;10644;48.834;10.088;2024-01-30T10:56:58;97993.75;;;14.55;47.17
20971;BME280;10644;48.834;10.088;2024-01-30T10:59:27;97994.94;;;14.31;47.29
20971;BME280;10644;48.834;10.088;2024-01-30T11:01:53;97989.50;;;14.19;47.95
20971;BME280;10644;48.834;10.088;2024-01-30T11:04:18;97992.28;;;14.33;48.29
20971;BME280;10644;48.834;10.088;2024-01-30T11:06:44;97993.25;;;14.30;48.29
20971;BME280;10644;48.834;10.088;2024-01-30T11:09:11;97997.56;;;14.30;48.55
20971;BME280;10644;48.834;10.088;2024-01-30T11:11:58;97993.44;;;14.61;48.31
20971;BME280;10644;48.834;10.088;2024-01-30T11:14:29;97989.97;;;14.79;46.71
20971;BME280;10644;48.834;10.088;2024-01-30T11:16:59;97985.63;;;14.80;46.80
20971;BME280;10644;48.834;10.088;2024-01-30T11:19:25;97989.50;;;15.05;46.30
20971;BME280;10644;48.834;10.088;2024-01-30T11:21:53;97987.47;;;14.95;46.21
20971;BME280;10644;48.834;10.088;2024-01-30T11:24:23;97982.91;;;14.83;45.89
20971;BME280;10644;48.834;10.088;2024-01-30T11:26:58;97987.28;;;15.15;45.81
20971;BME280;10644;48.834;10.088;2024-01-30T11:29:25;97988.06;;;15.34;44.93
20971;BME280;10644;48.834;10.088;2024-01-30T11:32:02;97989.72;;;15.35;41.23
20971;BME280;10644;48.834;10.088;2024-01-30T11:34:28;97983.47;;;15.39;39.96
20971;BME280;10644;48.834;10.088;2024-01-30T11:36:58;97983.16;;;15.45;38.06
20971;BME280;10644;48.834;10.088;2024-01-30T11:39:27;97978.28;;;15.56;38.70
20971;BME280;10644;48.834;10.088;2024-01-30T11:41:54;97977.28;;;15.58;37.06
20971;BME280;10644;48.834;10.088;2024-01-30T11:44:20;97983.16;;;15.45;37.69
20971;BME280;10644;48.834;10.088;2024-01-30T11:46:50;97969.06;;;15.35;37.89
20971;BME280;10644;48.834;10.088;2024-01-30T11:49:16;97973.47;;;15.33;38.47
20971;BME280;10644;48.834;10.088;2024-01-30T11:51:45;97961.19;;;15.53;38.58
20971;BME280;10644;48.834;10.088;2024-01-30T11:54:11;97950.34;;;15.62;38.18
20971;BME280;10644;48.834;10.088;2024-01-30T11:56:41;97964.25;;;15.44;37.91
20971;BME280;10644;48.834;10.088;2024-01-30T11:59:07;97952.50;;;15.54;38.28
20971;BME280;10644;48.834;10.088;2024-01-30T12:01:32;97960.53;;;15.65;38.47
20971;BME280;10644;48.834;10.088;2024-01-30T12:03:59;97960.44;;;15.67;37.77
20971;BME280;10644;48.834;10.088;2024-01-30T12:06:25;97960.34;;;15.53;37.90
20971;BME280;10644;48.834;10.088;2024-01-30T12:09:01;97955.91;;;15.55;38.84
20971;BME280;10644;48.834;10.088;2024-01-30T12:11:29;97958.03;;;15.79;38.62
20971;BME280;10644;48.834;10.088;2024-01-30T12:13:55;97969.03;;;15.83;38.40
20971;BME280;10644;48.834;10.088;2024-01-30T12:16:21;97961.19;;;15.53;38.01
20971;BME280;10644;48.834;10.088;2024-01-30T12:18:49;97953.84;;;15.46;38.40
20971;BME280;10644;48.834;10.088;2024-01-30T12:21:17;97957.53;;;15.73;39.14
20971;BME280;10644;48.834;10.088;2024-01-30T12:23:43;97959.34;;;15.71;38.61
20971;BME280;10644;48.834;10.088;2024-01-30T12:26:08;97954.69;;;15.77;38.72
20971;BME280;10644;48.834;10.088;2024-01-30T12:28:34;97955.22;;;15.84;38.55
20971;BME280;10644;48.834;10.088;2024-01-30T12:31:03;97950.84;;;16.00;38.72
20971;BME280;10644;48.834;10.088;2024-01-30T12:33:29;97949.75;;;16.04;38.50
20971;BME280;10644;48.834;10.088;2024-01-30T12:35:56;97950.19;;;15.96;37.95
20971;BME280;10644;48.834;10.088;2024-01-30T12:38:23;97954.03;;;15.89;37.79
20971;BME280;10644;48.834;10.088;2024-01-30T12:40:55;97949.38;;;15.96;37.17
20971;BME280;10644;48.834;10.088;2024-01-30T12:43:22;97944.34;;;15.93;37.32
20971;BME280;10644;48.834;10.088;2024-01-30T12:45:47;97952.78;;;15.81;37.00
20971;BME280;10644;48.834;10.088;2024-01-30T12:48:13;97947.03;;;15.60;37.09
20971;BME280;10644;48.834;10.088;2024-01-30T12:50:41;97959.19;;;15.74;36.56
20971;BME280;10644;48.834;10.088;2024-01-30T12:53:06;97931.53;;;15.60;37.17
20971;BME280;10644;48.834;10.088;2024-01-30T12:55:32;97941.34;;;16.00;37.57